AEZ2350 LIEE-LIML
Flight info
| Callsign | AEZ2350 |
|---|---|
| Flight time | N/A |
| Altitude | 30000 |
| Route | KOVAS DCT DEXUL DCT GIGGI DCT UPDUT DCT CORSI DCT OKROK DCT AKUTI DCT TORTU DCT ERTEV DCT OLETI DCT ITCAP |
| Aircraft | B738/M-SDE2E3FGHIRWXY/LB1 |
Departure
| Time | N/A |
|---|---|
| Airport | Cagliari Elmas Airport (LIEE) |
Arrival
| Time | 2026-05-05 08:12 |
|---|---|
| Airport | Milano Linate Airport (LIML) |
| Time | Latitude | Longitude | Altitude | Speed | Heading |
|---|---|---|---|---|---|
| 2026-05-05 07:24 | 40.75622 | 9.13179 | 30044 ft | 496 kts | 349° |
| 2026-05-05 07:24 | 40.82509 | 9.12743 | 30026 ft | 495 kts | 350° |
| 2026-05-05 07:25 | 40.89373 | 9.12309 | 30028 ft | 492 kts | 350° |
| 2026-05-05 07:25 | 40.96203 | 9.11876 | 30018 ft | 490 kts | 349° |
| 2026-05-05 07:26 | 41.02990 | 9.11444 | 30017 ft | 488 kts | 350° |
| 2026-05-05 07:26 | 41.09752 | 9.11014 | 30004 ft | 485 kts | 350° |
| 2026-05-05 07:27 | 41.16469 | 9.10584 | 30008 ft | 482 kts | 350° |
| 2026-05-05 07:27 | 41.23157 | 9.10154 | 30025 ft | 480 kts | 351° |
| 2026-05-05 07:28 | 41.29826 | 9.09725 | 30005 ft | 479 kts | 350° |
| 2026-05-05 07:28 | 41.36477 | 9.09296 | 30006 ft | 479 kts | 350° |
| 2026-05-05 07:29 | 41.43133 | 9.08866 | 30042 ft | 479 kts | 351° |
| 2026-05-05 07:29 | 41.49800 | 9.08434 | 30027 ft | 479 kts | 351° |
| 2026-05-05 07:30 | 41.56462 | 9.08002 | 30026 ft | 480 kts | 351° |
| 2026-05-05 07:30 | 41.66478 | 9.07351 | 30036 ft | 481 kts | 351° |
| 2026-05-05 07:31 | 41.73151 | 9.06921 | 30016 ft | 480 kts | 351° |
| 2026-05-05 07:31 | 41.79819 | 9.06488 | 30017 ft | 479 kts | 351° |
| 2026-05-05 07:32 | 41.86470 | 9.06050 | 30031 ft | 479 kts | 351° |
| 2026-05-05 07:32 | 41.93127 | 9.05613 | 30032 ft | 478 kts | 351° |
| 2026-05-05 07:33 | 41.99759 | 9.05178 | 30020 ft | 477 kts | 351° |
| 2026-05-05 07:33 | 42.06302 | 9.04747 | 30041 ft | 476 kts | 351° |
| 2026-05-05 07:34 | 42.12886 | 9.04314 | 30019 ft | 476 kts | 351° |
| 2026-05-05 07:34 | 42.19504 | 9.03873 | 29994 ft | 476 kts | 351° |
| 2026-05-05 07:35 | 42.26116 | 9.03438 | 29995 ft | 475 kts | 351° |
| 2026-05-05 07:35 | 42.32716 | 9.03003 | 29992 ft | 474 kts | 351° |
| 2026-05-05 07:36 | 42.39312 | 9.02561 | 29966 ft | 475 kts | 351° |
| 2026-05-05 07:36 | 42.45918 | 9.02121 | 29960 ft | 475 kts | 351° |
| 2026-05-05 07:37 | 42.52531 | 9.01681 | 29966 ft | 475 kts | 351° |
| 2026-05-05 07:37 | 42.59136 | 9.01238 | 29971 ft | 475 kts | 351° |
| 2026-05-05 07:38 | 42.64632 | 9.00870 | 29958 ft | 476 kts | 351° |
| 2026-05-05 07:38 | 42.71242 | 9.00427 | 29974 ft | 477 kts | 351° |
| 2026-05-05 07:39 | 42.77884 | 8.99980 | 29960 ft | 478 kts | 351° |
| 2026-05-05 07:39 | 42.84525 | 8.99532 | 29953 ft | 478 kts | 351° |
| 2026-05-05 07:40 | 42.91171 | 8.99083 | 29959 ft | 479 kts | 352° |
| 2026-05-05 07:40 | 42.97830 | 8.98632 | 29956 ft | 479 kts | 352° |
| 2026-05-05 07:41 | 43.04487 | 8.98180 | 29955 ft | 479 kts | 352° |
| 2026-05-05 07:41 | 43.11150 | 8.97727 | 29958 ft | 480 kts | 352° |
| 2026-05-05 07:42 | 43.17817 | 8.97272 | 29955 ft | 480 kts | 352° |
| 2026-05-05 07:42 | 43.24487 | 8.96817 | 29944 ft | 480 kts | 352° |
| 2026-05-05 07:43 | 43.31118 | 8.96363 | 29966 ft | 480 kts | 352° |
| 2026-05-05 07:43 | 43.37799 | 8.95905 | 29957 ft | 481 kts | 352° |
| 2026-05-05 07:44 | 43.44515 | 8.96228 | 29951 ft | 487 kts | 1° |
| 2026-05-05 07:44 | 43.51267 | 8.97170 | 29947 ft | 488 kts | 1° |
| 2026-05-05 07:45 | 43.58021 | 8.98078 | 29943 ft | 488 kts | 1° |
| 2026-05-05 07:45 | 43.64737 | 8.98901 | 29943 ft | 487 kts | 0° |
| 2026-05-05 07:46 | 43.71475 | 8.99697 | 29926 ft | 478 kts | 1° |
| 2026-05-05 07:46 | 43.74743 | 9.00087 | 29549 ft | 469 kts | 1° |
| 2026-05-05 07:46 | 43.77978 | 9.00472 | 29039 ft | 463 kts | 1° |
| 2026-05-05 07:47 | 43.81175 | 9.00852 | 28561 ft | 458 kts | 1° |
| 2026-05-05 07:47 | 43.84277 | 9.01221 | 28080 ft | 454 kts | 1° |
| 2026-05-05 07:47 | 43.87407 | 9.01593 | 27615 ft | 449 kts | 1° |
| 2026-05-05 07:47 | 43.90508 | 9.01962 | 27147 ft | 445 kts | 2° |
| 2026-05-05 07:48 | 43.93585 | 9.02329 | 26675 ft | 441 kts | 2° |
| 2026-05-05 07:48 | 43.96635 | 9.02694 | 26233 ft | 438 kts | 2° |
| 2026-05-05 07:48 | 43.99656 | 9.03056 | 25794 ft | 435 kts | 2° |
| 2026-05-05 07:48 | 44.02653 | 9.03415 | 25349 ft | 432 kts | 2° |
| 2026-05-05 07:49 | 44.05631 | 9.03772 | 24919 ft | 428 kts | 2° |
| 2026-05-05 07:49 | 44.08595 | 9.04128 | 24501 ft | 426 kts | 2° |
| 2026-05-05 07:49 | 44.11537 | 9.04482 | 24085 ft | 424 kts | 3° |
| 2026-05-05 07:49 | 44.14473 | 9.04835 | 23659 ft | 421 kts | 3° |
| 2026-05-05 07:50 | 44.17382 | 9.05186 | 23209 ft | 419 kts | 3° |
| 2026-05-05 07:50 | 44.20274 | 9.05535 | 22729 ft | 417 kts | 3° |
| 2026-05-05 07:50 | 44.23156 | 9.05883 | 22254 ft | 414 kts | 3° |
| 2026-05-05 07:50 | 44.26024 | 9.06230 | 21799 ft | 412 kts | 3° |
| 2026-05-05 07:51 | 44.28873 | 9.06574 | 21332 ft | 411 kts | 3° |
| 2026-05-05 07:51 | 44.31715 | 9.06919 | 20889 ft | 409 kts | 3° |
| 2026-05-05 07:51 | 44.34540 | 9.07262 | 20450 ft | 407 kts | 3° |
| 2026-05-05 07:51 | 44.37342 | 9.07602 | 20125 ft | 402 kts | 3° |
| 2026-05-05 07:52 | 44.40113 | 9.07939 | 19803 ft | 397 kts | 3° |
| 2026-05-05 07:52 | 44.42852 | 9.08284 | 19491 ft | 394 kts | 4° |
| 2026-05-05 07:52 | 44.45546 | 9.08906 | 19178 ft | 391 kts | 10° |
| 2026-05-05 07:52 | 44.48191 | 9.09749 | 18854 ft | 388 kts | 12° |
| 2026-05-05 07:53 | 44.50775 | 9.10618 | 18542 ft | 386 kts | 12° |
| 2026-05-05 07:53 | 44.53404 | 9.11490 | 18272 ft | 396 kts | 11° |
| 2026-05-05 07:53 | 44.56146 | 9.12369 | 17952 ft | 410 kts | 11° |
| 2026-05-05 07:53 | 44.58929 | 9.13236 | 17601 ft | 410 kts | 11° |
| 2026-05-05 07:54 | 44.61715 | 9.14088 | 17259 ft | 409 kts | 10° |
| 2026-05-05 07:54 | 44.64463 | 9.14928 | 16970 ft | 403 kts | 10° |
| 2026-05-05 07:54 | 44.67192 | 9.15760 | 16995 ft | 401 kts | 11° |
| 2026-05-05 07:54 | 44.69924 | 9.16606 | 16984 ft | 404 kts | 11° |
| 2026-05-05 07:55 | 44.72668 | 9.17451 | 17004 ft | 404 kts | 12° |
| 2026-05-05 07:55 | 44.75420 | 9.18349 | 16979 ft | 406 kts | 11° |
| 2026-05-05 07:55 | 44.78141 | 9.19376 | 16966 ft | 407 kts | 22° |
| 2026-05-05 07:55 | 44.80464 | 9.21606 | 16975 ft | 405 kts | 48° |
| 2026-05-05 07:56 | 44.81930 | 9.24932 | 17004 ft | 399 kts | 70° |
| 2026-05-05 07:56 | 44.83016 | 9.28534 | 16920 ft | 402 kts | 62° |
| 2026-05-05 07:56 | 44.84843 | 9.31512 | 16378 ft | 407 kts | 36° |
| 2026-05-05 07:56 | 44.87374 | 9.33179 | 15896 ft | 401 kts | 11° |
| 2026-05-05 07:57 | 44.90115 | 9.33291 | 15401 ft | 392 kts | 346° |
| 2026-05-05 07:57 | 44.92738 | 9.32368 | 14944 ft | 387 kts | 344° |
| 2026-05-05 07:57 | 44.95383 | 9.31677 | 14469 ft | 388 kts | 349° |
| 2026-05-05 07:57 | 44.98066 | 9.31259 | 13990 ft | 387 kts | 353° |
| 2026-05-05 07:58 | 45.00736 | 9.31012 | 13496 ft | 386 kts | 354° |
| 2026-05-05 07:58 | 45.03410 | 9.30854 | 12978 ft | 384 kts | 355° |
| 2026-05-05 07:58 | 45.06081 | 9.30735 | 12461 ft | 383 kts | 356° |
| 2026-05-05 07:58 | 45.08742 | 9.30629 | 11945 ft | 381 kts | 356° |
| 2026-05-05 07:59 | 45.11386 | 9.30523 | 11447 ft | 379 kts | 356° |
| 2026-05-05 07:59 | 45.14021 | 9.30414 | 10953 ft | 377 kts | 356° |
| 2026-05-05 07:59 | 45.16589 | 9.30304 | 10621 ft | 371 kts | 356° |
| 2026-05-05 07:59 | 45.19182 | 9.30192 | 10267 ft | 365 kts | 356° |
| 2026-05-05 08:00 | 45.21670 | 9.30082 | 9944 ft | 360 kts | 356° |
| 2026-05-05 08:00 | 45.24161 | 9.29954 | 9574 ft | 356 kts | 355° |
| 2026-05-05 08:00 | 45.26613 | 9.29694 | 9208 ft | 351 kts | 354° |
| 2026-05-05 08:00 | 45.28989 | 9.29075 | 8823 ft | 345 kts | 338° |
| 2026-05-05 08:01 | 45.31016 | 9.27367 | 8492 ft | 337 kts | 315° |
| 2026-05-05 08:01 | 45.32403 | 9.24740 | 8137 ft | 331 kts | 292° |
| 2026-05-05 08:01 | 45.32947 | 9.21644 | 7773 ft | 323 kts | 269° |
| 2026-05-05 08:01 | 45.32607 | 9.18623 | 7428 ft | 314 kts | 246° |
| 2026-05-05 08:02 | 45.31445 | 9.16069 | 7080 ft | 307 kts | 222° |
| 2026-05-05 08:02 | 45.29799 | 9.14186 | 6768 ft | 302 kts | 214° |
| 2026-05-05 08:02 | 45.28076 | 9.12503 | 6415 ft | 299 kts | 207° |
| 2026-05-05 08:02 | 45.26149 | 9.11485 | 6055 ft | 295 kts | 191° |
| 2026-05-05 08:03 | 45.24151 | 9.10871 | 5712 ft | 294 kts | 189° |
| 2026-05-05 08:03 | 45.22129 | 9.10551 | 5339 ft | 292 kts | 173° |
| 2026-05-05 08:03 | 45.20145 | 9.11056 | 5012 ft | 288 kts | 165° |
| 2026-05-05 08:03 | 45.18181 | 9.11642 | 4655 ft | 288 kts | 166° |
| 2026-05-05 08:04 | 45.16219 | 9.12199 | 4287 ft | 288 kts | 166° |
| 2026-05-05 08:04 | 45.14264 | 9.12794 | 3917 ft | 286 kts | 161° |
| 2026-05-05 08:04 | 45.12528 | 9.14091 | 3547 ft | 283 kts | 136° |
| 2026-05-05 08:04 | 45.11403 | 9.16338 | 3203 ft | 281 kts | 110° |
| 2026-05-05 08:05 | 45.11145 | 9.19041 | 3040 ft | 277 kts | 83° |
| 2026-05-05 08:05 | 45.11787 | 9.21537 | 2985 ft | 268 kts | 56° |
| 2026-05-05 08:05 | 45.13003 | 9.23405 | 2991 ft | 256 kts | 45° |
| 2026-05-05 08:05 | 45.14394 | 9.24924 | 2979 ft | 246 kts | 28° |
| 2026-05-05 08:06 | 45.15948 | 9.25813 | 2988 ft | 235 kts | 22° |
| 2026-05-05 08:06 | 45.17436 | 9.26615 | 2981 ft | 223 kts | 24° |
| 2026-05-05 08:06 | 45.18846 | 9.27363 | 2999 ft | 210 kts | 24° |
| 2026-05-05 08:06 | 45.20178 | 9.28062 | 2985 ft | 204 kts | 24° |
| 2026-05-05 08:07 | 45.21534 | 9.28759 | 3014 ft | 209 kts | 24° |
| 2026-05-05 08:07 | 45.22892 | 9.29452 | 3013 ft | 210 kts | 24° |
| 2026-05-05 08:07 | 45.24296 | 9.29926 | 2973 ft | 206 kts | 4° |
| 2026-05-05 08:07 | 45.25687 | 9.29670 | 2992 ft | 198 kts | 355° |
| 2026-05-05 08:08 | 45.27035 | 9.29542 | 2993 ft | 192 kts | 1° |
| 2026-05-05 08:08 | 45.28374 | 9.29438 | 3004 ft | 193 kts | 359° |
| 2026-05-05 08:08 | 45.29702 | 9.29301 | 2984 ft | 186 kts | 358° |
| 2026-05-05 08:08 | 45.30941 | 9.29165 | 2839 ft | 171 kts | 359° |
| 2026-05-05 08:09 | 45.32094 | 9.29043 | 2662 ft | 162 kts | 358° |
| 2026-05-05 08:09 | 45.33174 | 9.28925 | 2442 ft | 151 kts | 358° |
| 2026-05-05 08:09 | 45.34199 | 9.28815 | 2257 ft | 144 kts | 359° |
| 2026-05-05 08:09 | 45.35193 | 9.28709 | 2039 ft | 144 kts | 358° |
| 2026-05-05 08:10 | 45.36179 | 9.28600 | 1870 ft | 143 kts | 357° |
| 2026-05-05 08:10 | 45.37150 | 9.28499 | 1676 ft | 141 kts | 357° |
| 2026-05-05 08:10 | 45.38129 | 9.28394 | 1466 ft | 141 kts | 358° |
| 2026-05-05 08:10 | 45.39094 | 9.28308 | 1249 ft | 138 kts | 356° |
| 2026-05-05 08:11 | 45.40049 | 9.28151 | 951 ft | 139 kts | 354° |
| 2026-05-05 08:11 | 45.41011 | 9.28024 | 778 ft | 138 kts | 358° |
| 2026-05-05 08:11 | 45.41976 | 9.27972 | 618 ft | 140 kts | 359° |
| 2026-05-05 08:11 | 45.42951 | 9.27858 | 455 ft | 141 kts | 358° |
| 2026-05-05 08:12 | 45.43896 | 9.27760 | 369 ft | 126 kts | 358° |
| 2026-05-05 08:12 | 45.44668 | 9.27692 | 364 ft | 92 kts | 356° |
| 2026-05-05 08:12 | 45.45069 | 9.27653 | 360 ft | 45 kts | 356° |
| 2026-05-05 08:12 | 45.45318 | 9.27670 | 360 ft | 25 kts | 20° |
| 2026-05-05 08:13 | 45.45473 | 9.27797 | 359 ft | 25 kts | 25° |
| 2026-05-05 08:13 | 45.45653 | 9.27815 | 359 ft | 27 kts | 359° |
| 2026-05-05 08:13 | 45.45845 | 9.27812 | 359 ft | 17 kts | 359° |
| 2026-05-05 08:13 | 45.45865 | 9.27813 | 359 ft | 4 kts | 6° |
| 2026-05-05 08:14 | 45.45897 | 9.27845 | 363 ft | 7 kts | 55° |
| 2026-05-05 08:14 | 45.45907 | 9.27930 | 364 ft | 7 kts | 86° |
| 2026-05-05 08:14 | 45.45935 | 9.27966 | 360 ft | 7 kts | 8° |
| 2026-05-05 08:14 | 45.45969 | 9.27966 | 363 ft | 3 kts | 358° |
| 2026-05-05 08:15 | 45.45973 | 9.27966 | 362 ft | 0 kts | 359° |